Time;durP1;ratioP1;P1;durP2;ratioP2;P2;SDS_P1;SDS_P2;PMS_P1;PMS_P2;Temp;Humidity;BMP_temperature;BMP_pressure;BME280_temperature;BME280_humidity;BME280_pressure;Samples;Min_cycle;Max_cycle;Signal;HPM_P1;HPM_P2
2022/06/01 00:01:06;;;;;;;15.90;7.80;;;;;;;11.93;75.21;99167.95;104894;1271;74169;-24
2022/06/01 00:03:35;;;;;;;10.90;6.80;;;;;;;11.97;74.47;99167.95;104757;1271;62013;-25
2022/06/01 00:06:03;;;;;;;9.50;5.70;;;;;;;11.79;74.53;99160.73;104937;1271;62798;-24
2022/06/01 00:08:30;;;;;;;8.60;6.50;;;;;;;11.53;75.43;99159.11;105097;1271;75470;-24
2022/06/01 00:10:57;;;;;;;8.00;6.60;;;;;;;11.25;75.58;99153.73;105153;1271;76224;-24
2022/06/01 00:13:26;;;;;;;7.40;4.20;;;;;;;11.02;75.80;99150.19;104839;1271;75372;-24
2022/06/01 00:15:54;;;;;;;5.70;3.90;;;;;;;11.35;75.82;99151.67;104594;1271;62115;-24
2022/06/01 00:18:22;;;;;;;7.50;5.50;;;;;;;11.79;74.51;99151.83;104850;1271;61955;-24
2022/06/01 00:20:50;;;;;;;6.90;4.80;;;;;;;11.80;73.47;99147.30;104746;1271;75177;-24
2022/06/01 00:23:18;;;;;;;6.40;4.20;;;;;;;11.56;73.37;99148.27;104661;1271;76228;-24
2022/06/01 00:25:46;;;;;;;9.70;5.00;;;;;;;11.23;74.38;99146.98;104837;1271;74897;-24
2022/06/01 00:28:13;;;;;;;7.60;4.90;;;;;;;10.94;75.52;99146.39;104903;1271;62630;-24
2022/06/01 00:30:41;;;;;;;8.80;3.40;;;;;;;10.69;76.76;99147.48;104744;1271;61310;-24
2022/06/01 00:33:08;;;;;;;6.80;3.90;;;;;;;11.02;76.52;99149.55;104751;1271;76667;-24
2022/06/01 00:35:35;;;;;;;5.30;3.90;;;;;;;11.46;74.90;99151.98;104812;1271;77131;-24
2022/06/01 00:38:03;;;;;;;7.10;5.10;;;;;;;11.45;74.67;99151.27;104834;1271;74320;-24
2022/06/01 00:40:37;;;;;;;6.50;5.20;;;;;;;11.18;74.40;99147.53;104754;1271;62859;-24
2022/06/01 00:43:23;;;;;;;7.10;5.20;;;;;;;10.86;74.93;99143.02;104866;1271;61704;-24
2022/06/01 00:45:51;;;;;;;10.20;4.70;;;;;;;10.54;75.66;99141.27;104629;1274;74360;-25
2022/06/01 00:48:20;;;;;;;3.70;2.90;;;;;;;10.30;76.42;99134.75;104661;1274;76072;-25
2022/06/01 00:50:47;;;;;;;9.90;4.50;;;;;;;10.65;76.83;99135.67;104696;1274;74305;-25
2022/06/01 00:53:27;;;;;;;7.80;3.90;;;;;;;11.14;75.29;99133.06;104679;1274;62009;-25
2022/06/01 00:56:06;;;;;;;6.20;3.60;;;;;;;11.13;74.81;99130.55;104603;1274;62017;-25
2022/06/01 00:58:39;;;;;;;8.70;4.40;;;;;;;10.90;75.00;99130.73;104676;1274;75610;-25
2022/06/01 01:01:08;;;;;;;14.10;5.80;;;;;;;10.60;77.00;99127.55;104627;1274;77436;-25
2022/06/01 01:03:36;;;;;;;6.90;4.60;;;;;;;10.33;79.11;99124.75;104639;1275;74137;-25
2022/06/01 01:06:14;;;;;;;4.10;2.70;;;;;;;10.18;79.17;99118.50;104620;1274;63470;-25
2022/06/01 01:08:42;;;;;;;8.50;2.80;;;;;;;10.66;78.23;99114.52;104795;1274;62278;-25
2022/06/01 01:11:10;;;;;;;4.20;3.70;;;;;;;11.17;76.52;99117.88;104743;1274;75486;-25
2022/06/01 01:13:38;;;;;;;5.00;3.90;;;;;;;11.19;76.81;99114.13;104759;1274;77635;-25
2022/06/01 01:16:05;;;;;;;5.60;4.20;;;;;;;10.99;77.37;99115.44;104687;1276;75389;-25
2022/06/01 01:18:38;;;;;;;10.10;5.20;;;;;;;10.70;79.74;99114.27;104691;1274;62007;-25
2022/06/01 01:21:33;;;;;;;6.90;4.30;;;;;;;10.46;81.04;99118.27;104627;1274;62727;-25
2022/06/01 01:26:06;;;;;;;7.50;3.80;;;;;;;10.62;82.52;99107.40;102402;1300;599819;-25
2022/06/01 01:28:33;;;;;;;5.30;4.40;;;;;;;11.17;79.32;99106.98;104166;1286;63521;-23
2022/06/01 01:31:06;;;;;;;5.40;4.90;;;;;;;11.22;78.59;99105.34;103918;1286;61222;-24
2022/06/01 01:33:34;;;;;;;5.50;4.20;;;;;;;11.03;78.97;99102.02;104001;1284;74935;-24
2022/06/01 01:36:06;;;;;;;8.60;4.60;;;;;;;10.82;79.02;99100.92;104279;1284;77012;-23
2022/06/01 01:38:37;;;;;;;6.90;4.90;;;;;;;10.58;79.79;99105.12;103484;1284;538733;-24
2022/06/01 01:41:54;;;;;;;3.70;2.70;;;;;;;10.40;80.57;99108.27;104328;1281;63637;-23
2022/06/01 01:44:22;;;;;;;5.60;3.80;;;;;;;11.07;79.50;99106.76;104676;1277;62016;-23
2022/06/01 01:46:50;;;;;;;5.30;4.20;;;;;;;11.39;78.06;99106.03;104605;1277;74117;-23
2022/06/01 01:49:19;;;;;;;4.60;4.20;;;;;;;11.27;78.24;99104.61;104587;1277;76194;-23
2022/06/01 01:51:46;;;;;;;6.70;4.10;;;;;;;11.05;79.19;99110.02;104543;1275;74453;-24
2022/06/01 01:54:32;;;;;;;4.90;4.30;;;;;;;10.85;78.82;99111.12;104703;1277;62841;-25
2022/06/01 01:57:24;;;;;;;3.10;2.20;;;;;;;10.65;78.11;99106.31;104699;1277;62029;-23
2022/06/01 02:00:10;;;;;;;6.80;3.90;;;;;;;11.06;78.54;99106.66;104667;1277;75696;-23
2022/06/01 02:03:19;;;;;;;6.80;5.20;;;;;;;11.31;78.15;99103.24;104696;1277;75201;-23
2022/06/01 02:06:08;;;;;;;5.40;4.90;;;;;;;11.22;78.28;99106.74;104398;1283;73643;-23
2022/06/01 02:08:47;;;;;;;5.20;4.20;;;;;;;10.85;79.89;99104.17;104265;1284;62013;-23
2022/06/01 02:14:42;;;;;;;4.80;3.50;;;;;;;10.48;80.10;99108.72;104308;1281;75573;-25
2022/06/01 02:17:11;;;;;;;4.90;3.80;;;;;;;11.01;78.69;99109.44;103849;1283;75953;-26
2022/06/01 02:19:47;;;;;;;3.70;3.40;;;;;;;11.31;77.69;99109.09;103911;1283;75180;-26
2022/06/01 02:22:14;;;;;;;3.70;3.10;;;;;;;11.33;76.96;99110.16;104284;1283;61775;-23
2022/06/01 02:24:42;;;;;;;3.40;3.10;;;;;;;11.25;76.93;99114.88;104233;1282;61163;-23
2022/06/01 02:27:11;;;;;;;6.70;5.50;;;;;;;11.14;76.98;99114.86;104103;1283;75317;-26
2022/06/01 02:30:03;;;;;;;5.40;3.80;;;;;;;11.01;76.93;99112.09;103922;1281;77175;-25
2022/06/01 02:32:30;;;;;;;5.30;3.90;;;;;;;11.50;76.69;99109.29;103790;1284;74419;-26
2022/06/01 02:34:58;;;;;;;4.90;4.10;;;;;;;11.96;75.88;99108.67;103812;1281;62260;-25
2022/06/01 02:37:26;;;;;;;6.50;4.60;;;;;;;12.23;74.81;99107.99;104291;1277;61864;-23
2022/06/01 02:39:54;;;;;;;12.10;8.30;;;;;;;12.25;74.06;99108.52;104423;1277;74122;-24
2022/06/01 02:42:28;;;;;;;14.30;7.80;;;;;;;12.26;73.76;99114.31;104719;1277;74853;-23
2022/06/01 02:45:02;;;;;;;7.50;5.80;;;;;;;12.30;73.26;99115.85;104500;1277;74103;-25
2022/06/01 02:47:30;;;;;;;4.80;3.10;;;;;;;12.38;73.10;99114.86;104341;1277;63089;-26
2022/06/01 02:49:58;;;;;;;3.30;2.40;;;;;;;13.07;71.58;99118.17;104485;1278;62960;-26
2022/06/01 02:52:27;;;;;;;3.30;2.60;;;;;;;13.85;68.95;99119.91;104539;1277;74264;-26
2022/06/01 02:54:54;;;;;;;3.10;2.80;;;;;;;14.19;68.36;99116.43;104533;1278;75008;-25
2022/06/01 02:57:21;;;;;;;3.40;3.10;;;;;;;14.33;67.47;99116.33;104711;1278;74138;-24
2022/06/01 02:59:50;;;;;;;8.40;4.10;;;;;;;14.36;67.76;99121.73;104688;1277;62780;-24
2022/06/01 03:02:17;;;;;;;6.60;3.50;;;;;;;14.30;67.09;99121.98;104641;1277;61693;-23
2022/06/01 03:04:45;;;;;;;4.40;3.30;;;;;;;13.86;68.53;99125.11;104526;1277;75728;-26
2022/06/01 03:07:13;;;;;;;3.40;2.70;;;;;;;13.65;69.50;99127.86;104293;1277;76140;-25
2022/06/01 03:09:41;;;;;;;3.80;3.10;;;;;;;14.35;68.08;99128.39;104310;1278;75376;-26
2022/06/01 03:12:09;;;;;;;5.80;4.10;;;;;;;14.70;66.03;99126.56;104576;1277;61157;-24
2022/06/01 03:14:37;;;;;;;24.60;13.00;;;;;;;14.73;65.91;99122.98;104575;1278;63079;-23
2022/06/01 03:17:05;;;;;;;8.80;6.40;;;;;;;14.66;66.23;99117.89;104570;1277;74660;-24
2022/06/01 03:19:32;;;;;;;11.00;6.40;;;;;;;14.62;66.88;99116.83;104641;1278;75913;-24
2022/06/01 03:22:01;;;;;;;6.00;4.60;;;;;;;14.27;67.77;99116.52;104667;1277;74169;-24
2022/06/01 03:24:28;;;;;;;6.10;4.30;;;;;;;14.43;67.67;99112.91;104362;1277;61431;-24
2022/06/01 03:26:55;;;;;;;5.70;4.50;;;;;;;14.62;67.21;99115.16;104667;1277;61784;-24
2022/06/01 03:29:24;;;;;;;4.00;3.20;;;;;;;14.81;66.71;99117.73;104646;1277;75758;-24
2022/06/01 03:31:52;;;;;;;3.40;3.10;;;;;;;15.51;66.35;99119.33;104659;1277;76398;-24
2022/06/01 03:34:20;;;;;;;3.80;3.30;;;;;;;16.17;64.20;99126.17;104592;1277;73212;-24
2022/06/01 03:36:48;;;;;;;3.20;2.90;;;;;;;16.44;63.25;99126.64;104815;1276;61845;-24
2022/06/01 03:39:15;;;;;;;6.00;3.20;;;;;;;16.52;63.00;99128.33;104716;1277;61488;-24
2022/06/01 03:41:42;;;;;;;4.40;4.00;;;;;;;16.54;62.53;99137.02;104647;1277;74663;-24
2022/06/01 03:47:03;;;;;;;5.00;3.80;;;;;;;16.49;62.73;99148.20;104584;1278;74383;-24
2022/06/01 03:49:31;;;;;;;5.00;3.60;;;;;;;16.52;62.60;99142.86;104373;1278;61765;-24
2022/06/01 03:51:58;;;;;;;6.30;3.90;;;;;;;16.50;62.88;99139.66;104601;1277;63161;-24
2022/06/01 03:54:26;;;;;;;5.40;3.50;;;;;;;16.44;62.88;99140.05;104752;1277;73935;-24
2022/06/01 03:56:53;;;;;;;4.40;2.90;;;;;;;16.47;63.26;99137.06;104435;1277;75814;-24
2022/06/01 03:59:28;;;;;;;3.00;2.40;;;;;;;16.51;63.21;99127.41;104364;1277;75218;-24
2022/06/01 04:01:55;;;;;;;3.20;2.90;;;;;;;16.95;62.17;99124.54;104615;1277;63190;-24
2022/06/01 04:04:22;;;;;;;2.60;2.40;;;;;;;17.41;61.27;99121.48;104746;1277;62994;-23
2022/06/01 04:06:49;;;;;;;4.10;3.00;;;;;;;17.49;60.66;99124.16;104784;1277;74523;-23
2022/06/01 04:09:17;;;;;;;4.80;3.10;;;;;;;17.43;60.51;99126.56;104505;1277;76996;-24
2022/06/01 04:11:44;;;;;;;4.20;2.90;;;;;;;17.25;61.00;99129.52;104613;1277;74142;-24
2022/06/01 04:14:11;;;;;;;4.00;3.40;;;;;;;17.15;61.50;99132.60;104550;1277;63359;-23
2022/06/01 04:16:38;;;;;;;5.10;3.40;;;;;;;17.04;61.65;99127.36;104677;1277;62058;-23
2022/06/01 04:19:06;;;;;;;6.30;3.80;;;;;;;17.06;61.70;99130.84;104739;1277;75802;-24
2022/06/01 04:21:35;;;;;;;4.90;3.50;;;;;;;16.81;62.50;99130.54;104808;1276;76826;-23
2022/06/01 04:24:02;;;;;;;10.40;6.70;;;;;;;16.68;63.37;99125.06;104700;1278;75111;-24
2022/06/01 04:26:30;;;;;;;4.20;3.80;;;;;;;16.70;63.55;99123.59;104630;1278;62053;-23
2022/06/01 04:28:57;;;;;;;3.40;3.10;;;;;;;16.94;63.32;99127.55;104570;1277;61743;-24
2022/06/01 04:31:25;;;;;;;4.50;3.00;;;;;;;17.03;63.52;99121.19;104650;1277;74712;-24
2022/06/01 04:33:53;;;;;;;5.60;3.10;;;;;;;17.27;62.30;99118.14;104381;1277;76909;-24
2022/06/01 04:36:20;;;;;;;6.20;3.20;;;;;;;17.39;62.01;99117.89;104408;1277;75367;-25
2022/06/01 04:38:47;;;;;;;3.20;2.90;;;;;;;17.34;62.67;99111.36;104700;1277;63363;-25
2022/06/01 04:41:15;;;;;;;3.60;2.70;;;;;;;17.19;62.77;99110.73;104607;1277;61124;-25
2022/06/01 04:43:42;;;;;;;3.90;2.60;;;;;;;17.17;62.79;99105.98;104804;1276;74473;-25
2022/06/01 04:46:09;;;;;;;2.80;2.30;;;;;;;16.99;62.79;99104.42;104684;1277;77521;-25
2022/06/01 04:48:37;;;;;;;6.00;2.40;;;;;;;16.89;63.29;99100.39;104797;1277;75459;-25
2022/06/01 04:51:04;;;;;;;1.90;1.70;;;;;;;16.68;64.12;99107.12;104639;1277;61574;-25
2022/06/01 04:53:31;;;;;;;3.50;2.50;;;;;;;16.78;63.23;99111.33;104557;1278;61923;-25
2022/06/01 04:55:58;;;;;;;17.00;5.90;;;;;;;16.96;63.51;99110.00;104405;1277;75683;-25
2022/06/01 04:58:26;;;;;;;2.80;1.60;;;;;;;17.33;62.89;99111.19;104539;1277;77163;-25
2022/06/01 05:00:53;;;;;;;4.40;1.80;;;;;;;18.13;60.96;99112.08;104592;1277;74362;-25
2022/06/01 05:03:20;;;;;;;1.80;1.60;;;;;;;18.67;58.85;99109.29;104581;1277;62468;-26
2022/06/01 05:05:48;;;;;;;1.70;1.40;;;;;;;19.02;58.91;99108.86;104657;1277;61991;-25
2022/06/01 05:08:15;;;;;;;2.40;1.80;;;;;;;19.36;58.04;99109.33;104617;1277;76118;-25
2022/06/01 05:10:42;;;;;;;2.80;2.20;;;;;;;19.47;56.67;99112.15;104528;1277;76199;-25
2022/06/01 05:13:10;;;;;;;4.20;2.00;;;;;;;19.53;55.46;99107.04;104357;1277;75511;-25
2022/06/01 05:15:48;;;;;;;3.70;2.10;;;;;;;19.39;55.87;99100.60;104414;1277;63194;-25
2022/06/01 05:18:16;;;;;;;4.10;2.50;;;;;;;19.19;56.11;99088.79;104725;1277;63035;-25
2022/06/01 05:20:43;;;;;;;3.20;2.50;;;;;;;19.18;55.38;99076.95;104515;1277;73874;-25
2022/06/01 05:23:10;;;;;;;3.30;2.10;;;;;;;19.14;55.11;99074.42;104703;1277;75957;-25
2022/06/01 05:25:42;;;;;;;3.90;2.70;;;;;;;19.20;55.28;99082.66;104790;1277;73558;-25
2022/06/01 05:28:09;;;;;;;4.10;2.20;;;;;;;19.33;54.67;99090.53;104598;1277;62146;-25
2022/06/01 05:30:36;;;;;;;3.20;1.80;;;;;;;19.50;55.06;99095.92;104527;1277;61994;-25
2022/06/01 05:33:04;;;;;;;2.80;2.00;;;;;;;19.80;54.00;99101.06;104707;1277;75757;-25
2022/06/01 05:35:31;;;;;;;3.80;2.10;;;;;;;20.09;53.82;99108.11;104694;1278;75665;-25
2022/06/01 05:37:59;;;;;;;2.00;1.70;;;;;;;20.40;53.29;99108.09;104636;1278;74429;-25
2022/06/01 05:40:30;;;;;;;1.60;1.50;;;;;;;20.70;52.01;99100.11;104748;1277;62952;-24
2022/06/01 05:42:58;;;;;;;1.50;1.30;;;;;;;21.03;51.48;99091.33;104656;1278;63185;-25
2022/06/01 05:45:26;;;;;;;2.10;1.30;;;;;;;21.27;49.93;99089.80;104734;1277;75435;-24
2022/06/01 05:47:53;;;;;;;1.50;1.20;;;;;;;21.24;49.70;99090.61;104653;1278;76000;-24
2022/06/01 05:50:21;;;;;;;1.40;1.10;;;;;;;20.99;48.81;99089.33;104669;1278;75172;-24
2022/06/01 05:52:48;;;;;;;2.10;1.30;;;;;;;20.72;49.46;99091.24;104767;1277;61775;-24
2022/06/01 05:55:16;;;;;;;1.30;1.10;;;;;;;20.59;49.92;99084.37;104681;1278;63065;-25
2022/06/01 05:57:43;;;;;;;4.10;1.00;;;;;;;20.67;50.34;99079.29;104682;1277;75595;-24
2022/06/01 06:00:11;;;;;;;2.00;1.20;;;;;;;20.87;49.11;99072.83;104552;1277;77108;-25
2022/06/01 06:02:39;;;;;;;1.60;1.20;;;;;;;20.82;48.36;99075.19;104656;1278;75362;-25
2022/06/01 06:06:11;;;;;;;2.30;1.10;;;;;;;20.73;49.06;99076.80;104713;1277;63121;-24
2022/06/01 06:07:55;;;;;;;1.20;1.00;;;;;;;20.62;49.35;99079.23;104594;1277;61736;-25
2022/06/01 06:10:22;;;;;;;1.10;1.00;;;;;;;20.53;48.89;99076.09;104291;1280;76503;-25
2022/06/01 06:12:50;;;;;;;2.10;1.00;;;;;;;20.41;48.73;99074.75;104320;1277;76998;-24
2022/06/01 06:15:17;;;;;;;1.80;1.30;;;;;;;20.16;48.63;99074.06;104571;1278;75125;-24
2022/06/01 06:17:53;;;;;;;1.60;1.30;;;;;;;20.05;48.85;99071.88;104579;1276;63084;-24
2022/06/01 06:20:20;;;;;;;3.40;1.20;;;;;;;19.94;49.48;99071.88;104419;1278;61700;-24
2022/06/01 06:22:48;;;;;;;2.50;1.40;;;;;;;19.88;49.28;99071.02;104691;1277;76522;-25
2022/06/01 06:25:15;;;;;;;1.80;1.30;;;;;;;19.81;50.04;99066.38;104430;1277;76046;-24
2022/06/01 06:27:42;;;;;;;2.00;1.40;;;;;;;19.81;50.61;99058.12;104832;1277;73935;-22
2022/06/01 06:30:11;;;;;;;4.90;2.10;;;;;;;19.74;50.43;99051.21;104537;1277;61995;-22
2022/06/01 06:32:38;;;;;;;3.50;2.00;;;;;;;19.61;50.72;99051.36;104611;1278;61210;-22
2022/06/01 06:35:06;;;;;;;2.10;1.70;;;;;;;19.48;50.41;99046.45;104547;1277;75210;-25
2022/06/01 06:37:33;;;;;;;2.60;1.50;;;;;;;19.45;50.92;99050.23;104584;1278;77498;-24
2022/06/01 06:40:00;;;;;;;1.60;1.30;;;;;;;19.42;50.82;99062.23;104504;1277;75091;-25
2022/06/01 06:42:28;;;;;;;1.40;1.20;;;;;;;19.43;50.91;99066.50;104363;1277;62860;-24
2022/06/01 06:44:55;;;;;;;1.40;1.10;;;;;;;19.40;51.29;99065.05;104554;1275;63292;-24
2022/06/01 06:47:22;;;;;;;3.40;1.30;;;;;;;19.44;51.45;99066.30;104584;1277;76633;-24
2022/06/01 06:49:49;;;;;;;2.00;1.10;;;;;;;19.53;52.13;99059.19;104650;1277;75410;-24
2022/06/01 06:52:17;;;;;;;1.80;1.30;;;;;;;19.69;52.04;99057.41;104520;1278;75994;-24
2022/06/01 06:54:44;;;;;;;1.50;1.20;;;;;;;19.83;51.41;99048.63;104546;1277;61067;-24
2022/06/01 06:57:11;;;;;;;1.30;1.10;;;;;;;19.86;51.41;99043.43;104643;1277;63084;-24
2022/06/01 06:59:39;;;;;;;2.20;1.50;;;;;;;19.89;52.03;99043.30;104650;1277;74499;-24
2022/06/01 07:02:06;;;;;;;3.10;1.60;;;;;;;20.15;53.31;99044.41;104617;1277;77118;-25
2022/06/01 07:04:35;;;;;;;2.30;1.70;;;;;;;20.65;52.10;99046.75;104419;1277;75431;-24
2022/06/01 07:07:03;;;;;;;1.50;1.30;;;;;;;21.00;51.59;99043.04;104570;1278;63224;-25
2022/06/01 07:09:30;;;;;;;2.60;1.40;;;;;;;21.17;50.98;99047.96;104624;1277;63122;-24
2022/06/01 07:11:58;;;;;;;1.60;1.40;;;;;;;21.44;51.06;99048.92;104672;1277;76412;-24
2022/06/01 07:14:25;;;;;;;4.70;1.40;;;;;;;21.78;51.46;99047.10;104691;1277;76693;-24
2022/06/01 07:16:52;;;;;;;3.90;1.50;;;;;;;22.08;50.06;99046.13;104582;1278;75464;-24
2022/06/01 07:19:21;;;;;;;2.10;1.70;;;;;;;22.28;48.63;99037.52;104330;1277;62772;-24
2022/06/01 07:21:48;;;;;;;3.70;1.50;;;;;;;22.59;48.62;99035.56;104567;1277;61782;-24
2022/06/01 07:24:15;;;;;;;2.90;1.40;;;;;;;22.94;48.64;99033.23;104560;1277;75557;-24
2022/06/01 07:26:44;;;;;;;3.70;1.30;;;;;;;23.13;47.61;99027.05;104598;1277;75940;-24
2022/06/01 07:29:12;;;;;;;1.80;1.20;;;;;;;22.95;47.56;99018.27;104410;1278;75080;-24
2022/06/01 07:31:40;;;;;;;4.90;1.50;;;;;;;22.53;49.16;99017.98;104702;1271;61122;-24
2022/06/01 07:34:07;;;;;;;2.40;1.60;;;;;;;22.62;49.43;99017.12;104688;1271;61911;-24
2022/06/01 07:36:35;;;;;;;2.00;1.70;;;;;;;22.58;48.97;99013.85;104729;1272;76324;-24
2022/06/01 07:44:49;;;;;;;1.90;1.30;;;;;;;23.29;48.42;99015.02;104836;1271;61493;-24
2022/06/01 07:47:16;;;;;;;4.40;1.50;;;;;;;23.82;48.06;99016.02;105007;1274;63025;-24
2022/06/01 07:50:05;;;;;;;2.10;1.60;;;;;;;24.25;46.15;99016.33;104916;1271;75555;-24
2022/06/01 07:52:52;;;;;;;2.40;1.40;;;;;;;24.71;45.91;99018.11;104892;1274;76831;-24
2022/06/01 07:55:19;;;;;;;4.60;1.60;;;;;;;24.84;44.32;99018.34;104976;1274;75102;-24
2022/06/01 07:57:47;;;;;;;1.50;1.10;;;;;;;24.79;44.59;99018.14;105015;1271;62107;-24
2022/06/01 08:00:14;;;;;;;2.30;1.60;;;;;;;24.50;44.10;99018.97;105070;1271;63125;-24
2022/06/01 08:02:43;;;;;;;1.80;1.40;;;;;;;24.18;45.29;99016.56;104675;1277;76719;-24
2022/06/01 08:05:10;;;;;;;2.20;1.60;;;;;;;24.04;46.39;99017.16;104797;1271;75880;-24
2022/06/01 08:07:37;;;;;;;4.20;1.70;;;;;;;23.78;46.70;99011.02;104801;1271;74392;-24
2022/06/01 08:10:05;;;;;;;2.30;1.90;;;;;;;23.42;46.80;99014.13;104806;1271;62221;-24
2022/06/01 08:15:21;;;;;;;7.70;1.80;;;;;;;22.79;48.30;99016.85;104948;1272;75455;-24
2022/06/01 08:17:55;;;;;;;2.10;1.60;;;;;;;22.61;49.72;99012.50;104769;1271;75932;-24
2022/06/01 08:20:23;;;;;;;2.20;1.60;;;;;;;22.37;50.32;99012.85;104687;1271;75361;-24
2022/06/01 08:22:51;;;;;;;2.20;1.40;;;;;;;22.32;51.57;99013.41;105122;1272;63043;-24
2022/06/01 08:25:19;;;;;;;2.20;1.50;;;;;;;22.72;52.16;99021.44;104741;1271;62832;-24
2022/06/01 08:27:47;;;;;;;2.70;1.50;;;;;;;23.24;50.90;99019.54;104858;1274;76531;-24
2022/06/01 08:30:15;;;;;;;8.80;2.00;;;;;;;23.45;49.57;99020.86;105153;1271;76081;-24
2022/06/01 08:32:43;;;;;;;2.30;1.60;;;;;;;23.46;48.65;99013.48;104652;1271;75069;-24
2022/06/01 08:35:11;;;;;;;2.50;1.80;;;;;;;23.72;48.71;99009.67;104689;1274;63088;-24
2022/06/01 08:37:38;;;;;;;3.40;2.00;;;;;;;24.07;48.74;99004.87;104712;1274;61765;-24
2022/06/01 08:40:06;;;;;;;5.70;1.80;;;;;;;24.34;46.97;98996.13;104806;1271;76497;-24
2022/06/01 08:42:34;;;;;;;2.80;2.00;;;;;;;24.37;47.23;99005.61;104721;1271;75906;-24
2022/06/01 08:45:04;;;;;;;3.50;1.70;;;;;;;24.52;47.63;99009.46;104709;1272;75426;-24
2022/06/01 08:47:33;;;;;;;4.10;2.60;;;;;;;24.83;46.99;99008.71;104667;1271;63121;-24
2022/06/01 08:50:02;;;;;;;2.50;2.00;;;;;;;25.03;46.48;99004.58;104718;1272;61976;-24
2022/06/01 08:52:29;;;;;;;3.90;1.90;;;;;;;25.23;46.02;99006.88;104675;1271;75405;-25
2022/06/01 08:54:56;;;;;;;3.00;1.70;;;;;;;25.54;45.82;99007.13;104774;1272;75692;-25
2022/06/01 08:57:36;;;;;;;3.40;1.80;;;;;;;25.37;45.17;99002.39;104767;1274;74322;-24
2022/06/01 09:00:18;;;;;;;2.30;1.90;;;;;;;24.99;46.06;98994.67;105033;1271;62017;-24
2022/06/01 09:02:51;;;;;;;4.80;2.20;;;;;;;24.66;47.16;98996.85;104793;1271;61963;-25
2022/06/01 09:05:23;;;;;;;3.10;2.10;;;;;;;24.62;47.35;98998.45;104694;1271;76337;-25
2022/06/01 09:07:52;;;;;;;3.60;1.90;;;;;;;24.88;47.68;98998.34;104869;1271;76773;-24
2022/06/01 09:10:30;;;;;;;4.40;1.90;;;;;;;25.22;47.50;99000.77;104723;1271;75456;-24
2022/06/01 09:13:23;;;;;;;2.50;1.90;;;;;;;25.73;45.74;98996.21;104721;1272;62229;-24
2022/06/01 09:16:00;;;;;;;7.60;2.00;;;;;;;25.75;45.38;98998.35;104616;1271;62166;-24
2022/06/01 09:18:30;;;;;;;2.40;1.80;;;;;;;25.90;46.61;98994.53;104732;1272;76681;-24
2022/06/01 09:23:44;;;;;;;3.60;2.00;;;;;;;27.03;43.88;98992.39;104622;1271;75582;-26
2022/06/01 09:26:23;;;;;;;21.60;3.20;;;;;;;27.27;42.39;98993.86;104597;1272;62047;-25
2022/06/01 09:28:53;;;;;;;2.10;1.90;;;;;;;27.02;42.68;98987.30;104821;1271;61957;-24
2022/06/01 09:31:23;;;;;;;6.30;2.00;;;;;;;27.01;43.53;98985.58;104652;1271;76592;-24
2022/06/01 09:33:52;;;;;;;3.80;1.70;;;;;;;27.34;42.93;98988.80;104803;1271;74565;-24
2022/06/01 09:36:27;;;;;;;4.90;2.10;;;;;;;27.48;42.74;98982.31;104719;1271;74544;-25
2022/06/01 09:39:01;;;;;;;5.30;2.20;;;;;;;27.06;43.48;98980.45;104741;1272;63123;-24
2022/06/01 09:41:40;;;;;;;2.50;2.10;;;;;;;26.84;43.47;98981.22;104721;1271;61644;-24
2022/06/01 09:44:10;;;;;;;2.10;1.70;;;;;;;26.82;44.65;98977.58;104751;1274;76724;-24
2022/06/01 09:46:40;;;;;;;3.30;2.50;;;;;;;26.71;44.03;98983.85;104673;1271;74950;-25
2022/06/01 09:49:19;;;;;;;4.40;2.50;;;;;;;27.02;44.25;98982.97;104751;1271;74394;-24
2022/06/01 09:51:47;;;;;;;5.10;2.20;;;;;;;27.02;43.50;98981.20;104669;1271;63038;-24
2022/06/01 09:54:23;;;;;;;4.10;2.10;;;;;;;26.66;43.65;98981.34;104782;1271;62022;-24
2022/06/01 09:56:50;;;;;;;3.30;2.20;;;;;;;26.47;43.61;98977.17;104623;1271;76534;-24
2022/06/01 10:08:20;;;;;;;3.70;2.20;;;;;;;26.89;43.52;98956.42;104770;1272;62168;-24
2022/06/01 10:10:59;;;;;;;2.70;1.80;;;;;;;26.81;43.18;98950.79;104643;1271;75321;-24
2022/06/01 10:13:47;;;;;;;2.80;1.80;;;;;;;26.94;42.82;98953.79;104819;1271;76900;-24
2022/06/01 10:16:22;;;;;;;3.30;1.70;;;;;;;27.18;42.26;98950.11;104568;1271;74409;-24
2022/06/01 10:18:50;;;;;;;4.20;2.10;;;;;;;27.31;42.46;98944.00;104616;1271;61739;-24
2022/06/01 10:21:20;;;;;;;4.50;2.10;;;;;;;27.48;42.66;98937.18;104613;1271;62758;-25
2022/06/01 10:24:01;;;;;;;3.80;1.90;;;;;;;27.59;43.42;98939.31;104409;1271;75745;-25
2022/06/01 10:26:33;;;;;;;3.20;1.80;;;;;;;27.84;42.05;98937.33;104735;1271;76811;-25
2022/06/01 10:29:30;;;;;;;1.80;1.70;;;;;;;27.91;41.41;98937.52;104584;1271;75415;-24
2022/06/01 10:32:05;;;;;;;4.70;2.10;;;;;;;28.12;41.97;98933.38;104599;1271;61881;-24
2022/06/01 10:34:37;;;;;;;2.90;1.80;;;;;;;28.51;41.63;98931.80;104682;1271;63035;-26
2022/06/01 10:37:27;;;;;;;5.10;2.10;;;;;;;28.35;40.26;98930.17;104721;1271;76144;-25
2022/06/01 10:44:46;;;;;;;3.50;1.90;;;;;;;28.44;41.89;98923.68;105109;1271;71504;-24
2022/06/01 10:47:18;;;;;;;3.30;1.80;;;;;;;28.69;41.24;98915.61;104926;1272;62018;-25
2022/06/01 10:50:09;;;;;;;5.90;1.90;;;;;;;28.71;41.75;98913.18;104798;1271;63119;-25
2022/06/01 10:52:40;;;;;;;2.60;1.80;;;;;;;28.81;41.34;98912.56;104858;1271;76625;-24
2022/06/01 10:55:21;;;;;;;2.90;2.00;;;;;;;28.78;40.54;98908.14;104702;1271;76304;-25
2022/06/01 10:57:48;;;;;;;2.80;1.80;;;;;;;28.91;40.00;98910.33;104540;1271;75480;-25
2022/06/01 11:00:18;;;;;;;1.90;1.60;;;;;;;28.79;40.82;98911.58;104714;1271;61766;-25
2022/06/01 11:03:01;;;;;;;2.00;1.70;;;;;;;28.85;41.78;98912.56;104712;1271;62755;-25
2022/06/01 11:05:47;;;;;;;;;;;;;;;28.99;39.96;98904.47;104676;1271;75394;-24
2022/06/01 11:08:24;;;;;;;1.80;1.60;;;;;;;28.55;40.55;98910.92;104951;1271;76726;-25
2022/06/01 11:10:59;;;;;;;5.30;1.80;;;;;;;28.62;40.44;98908.67;104862;1271;75263;-25
2022/06/01 11:14:02;;;;;;;2.20;1.50;;;;;;;28.37;41.20;98903.33;104851;1271;63203;-23
2022/06/01 11:16:40;;;;;;;2.50;1.80;;;;;;;27.75;41.75;98903.79;104671;1272;63008;-24
2022/06/01 11:19:23;;;;;;;2.90;1.70;;;;;;;25.93;44.91;98897.42;104882;1271;76523;-24
2022/06/01 11:22:03;;;;;;;4.00;1.80;;;;;;;25.68;47.29;98904.06;105070;1271;76094;-23
2022/06/01 11:24:42;;;;;;;3.30;1.60;;;;;;;26.35;46.40;98898.87;105099;1271;74405;-23
2022/06/01 11:27:16;;;;;;;2.50;1.90;;;;;;;27.02;43.29;98895.04;104704;1271;62726;-24
2022/06/01 11:30:14;;;;;;;4.70;2.20;;;;;;;26.93;43.33;98893.98;104770;1271;63041;-23
2022/06/01 11:32:56;;;;;;;3.30;1.80;;;;;;;26.54;45.04;98889.95;105108;1271;74084;-24
2022/06/01 11:35:30;;;;;;;3.10;1.80;;;;;;;26.28;44.68;98890.05;105024;1271;75782;-24
2022/06/01 11:38:16;;;;;;;2.70;1.80;;;;;;;26.27;45.11;98887.44;104841;1271;74600;-24
2022/06/01 11:40:48;;;;;;;1.80;1.50;;;;;;;25.24;46.56;98886.52;105094;1270;62951;-24
2022/06/01 11:43:29;;;;;;;3.40;2.40;;;;;;;25.26;48.32;98889.52;105083;1271;63279;-24
2022/06/01 11:46:02;;;;;;;3.50;1.90;;;;;;;25.69;48.17;98878.81;104788;1271;75551;-24
2022/06/01 11:48:36;;;;;;;3.90;1.70;;;;;;;26.29;46.60;98868.02;104875;1271;76890;-24
2022/06/01 11:51:14;;;;;;;4.20;2.00;;;;;;;26.60;45.22;98874.83;104762;1271;75509;-24
2022/06/01 11:53:41;;;;;;;3.80;2.00;;;;;;;26.84;44.84;98871.54;105029;1271;62889;-24
2022/06/01 11:56:23;;;;;;;3.30;1.80;;;;;;;26.99;44.19;98866.17;105139;1271;61873;-24
2022/06/01 11:59:12;;;;;;;3.10;2.10;;;;;;;27.35;44.28;98864.42;105106;1271;75615;-24
2022/06/01 12:01:49;;;;;;;2.30;1.70;;;;;;;27.61;44.69;98865.70;105092;1271;75242;-23
2022/06/01 12:04:19;;;;;;;3.70;2.20;;;;;;;27.64;43.26;98867.69;104874;1271;74470;-24
2022/06/01 12:06:53;;;;;;;2.10;1.80;;;;;;;27.04;43.55;98859.86;105068;1271;62083;-24
2022/06/01 12:09:23;;;;;;;;;;;;;;;26.52;44.23;98850.10;104987;1271;61993;-24
2022/06/01 12:12:41;;;;;;;3.70;1.60;;;;;;;26.55;44.61;98853.42;104855;1271;75696;-23
2022/06/01 12:15:37;;;;;;;6.80;1.70;;;;;;;27.23;45.75;98849.63;104891;1271;77026;-24
2022/06/01 12:18:11;;;;;;;3.00;1.50;;;;;;;27.56;43.25;98840.70;104851;1271;75695;-25